sensor_id;sensor_type;location;lat;lon;timestamp;pressure;altitude;pressure_sealevel;temperature;humidity
43147;BME280;28752;48.266;7.402;2023-04-04T00:01:18;100150.09;;;2.47;59.58
43147;BME280;28752;48.266;7.402;2023-04-04T00:03:43;100152.03;;;2.44;59.87
43147;BME280;28752;48.266;7.402;2023-04-04T00:06:08;100147.94;;;2.38;59.63
43147;BME280;28752;48.266;7.402;2023-04-04T00:08:34;100149.81;;;2.36;59.66
43147;BME280;28752;48.266;7.402;2023-04-04T00:10:59;100137.50;;;2.38;59.55
43147;BME280;28752;48.266;7.402;2023-04-04T00:13:26;100140.25;;;2.35;59.65
43147;BME280;28752;48.266;7.402;2023-04-04T00:15:52;100148.75;;;2.40;59.74
43147;BME280;28752;48.266;7.402;2023-04-04T00:18:17;100147.13;;;2.38;59.77
43147;BME280;28752;48.266;7.402;2023-04-04T00:20:43;100148.25;;;2.32;59.92
43147;BME280;28752;48.266;7.402;2023-04-04T00:23:08;100141.44;;;2.29;59.88
43147;BME280;28752;48.266;7.402;2023-04-04T00:25:36;100143.25;;;2.27;60.20
43147;BME280;28752;48.266;7.402;2023-04-04T00:28:02;100142.16;;;2.14;60.44
43147;BME280;28752;48.266;7.402;2023-04-04T00:30:28;100122.88;;;2.17;60.10
43147;BME280;28752;48.266;7.402;2023-04-04T00:32:54;100137.00;;;2.12;60.47
43147;BME280;28752;48.266;7.402;2023-04-04T00:35:20;100130.44;;;2.23;60.72
43147;BME280;28752;48.266;7.402;2023-04-04T00:37:45;100130.13;;;2.11;60.53
43147;BME280;28752;48.266;7.402;2023-04-04T00:40:11;100134.41;;;2.12;60.66
43147;BME280;28752;48.266;7.402;2023-04-04T00:42:37;100125.13;;;2.07;60.63
43147;BME280;28752;48.266;7.402;2023-04-04T00:45:03;100133.88;;;2.06;61.16
43147;BME280;28752;48.266;7.402;2023-04-04T00:47:29;100122.00;;;1.99;61.13
43147;BME280;28752;48.266;7.402;2023-04-04T00:49:55;100126.88;;;2.06;60.97
43147;BME280;28752;48.266;7.402;2023-04-04T00:52:21;100131.31;;;2.04;60.59
43147;BME280;28752;48.266;7.402;2023-04-04T00:54:46;100119.91;;;2.07;60.24
43147;BME280;28752;48.266;7.402;2023-04-04T00:57:12;100122.09;;;1.97;60.60
43147;BME280;28752;48.266;7.402;2023-04-04T00:59:37;100115.88;;;2.00;60.48
43147;BME280;28752;48.266;7.402;2023-04-04T01:02:03;100120.72;;;1.90;60.80
43147;BME280;28752;48.266;7.402;2023-04-04T01:04:29;100118.63;;;1.97;60.95
43147;BME280;28752;48.266;7.402;2023-04-04T01:06:55;100121.19;;;1.98;61.08
43147;BME280;28752;48.266;7.402;2023-04-04T01:09:21;100111.72;;;1.95;61.00
43147;BME280;28752;48.266;7.402;2023-04-04T01:11:47;100119.63;;;1.94;61.37
43147;BME280;28752;48.266;7.402;2023-04-04T01:14:12;100123.25;;;1.91;61.12
43147;BME280;28752;48.266;7.402;2023-04-04T01:16:38;100104.78;;;1.77;60.72
43147;BME280;28752;48.266;7.402;2023-04-04T01:19:05;100117.16;;;1.91;60.85
43147;BME280;28752;48.266;7.402;2023-04-04T01:21:33;100114.78;;;1.86;61.14
43147;BME280;28752;48.266;7.402;2023-04-04T01:24:00;100127.53;;;1.92;61.05
43147;BME280;28752;48.266;7.402;2023-04-04T01:26:27;100117.91;;;1.75;60.92
43147;BME280;28752;48.266;7.402;2023-04-04T01:28:54;100118.94;;;1.90;60.75
43147;BME280;28752;48.266;7.402;2023-04-04T01:31:27;100117.59;;;1.82;61.04
43147;BME280;28752;48.266;7.402;2023-04-04T01:34:15;100116.13;;;1.76;61.29
43147;BME280;28752;48.266;7.402;2023-04-04T01:37:00;100114.44;;;1.75;61.72
43147;BME280;28752;48.266;7.402;2023-04-04T01:39:31;100122.44;;;1.72;61.90
43147;BME280;28752;48.266;7.402;2023-04-04T01:42:00;100115.66;;;1.68;61.66
43147;BME280;28752;48.266;7.402;2023-04-04T01:44:27;100119.16;;;1.67;61.78
43147;BME280;28752;48.266;7.402;2023-04-04T01:46:53;100122.88;;;1.63;61.93
43147;BME280;28752;48.266;7.402;2023-04-04T01:49:19;100122.16;;;1.59;62.28
43147;BME280;28752;48.266;7.402;2023-04-04T01:51:45;100121.44;;;1.55;62.25
43147;BME280;28752;48.266;7.402;2023-04-04T01:54:11;100120.31;;;1.61;62.60
43147;BME280;28752;48.266;7.402;2023-04-04T01:56:36;100118.47;;;1.44;62.60
43147;BME280;28752;48.266;7.402;2023-04-04T01:59:01;100112.28;;;1.47;62.76
43147;BME280;28752;48.266;7.402;2023-04-04T02:01:27;100121.94;;;1.45;63.05
43147;BME280;28752;48.266;7.402;2023-04-04T02:03:53;100111.31;;;1.49;62.70
43147;BME280;28752;48.266;7.402;2023-04-04T02:06:18;100117.72;;;1.42;63.16
43147;BME280;28752;48.266;7.402;2023-04-04T02:08:43;100114.63;;;1.34;63.50
43147;BME280;28752;48.266;7.402;2023-04-04T02:11:09;100116.44;;;1.32;63.55
43147;BME280;28752;48.266;7.402;2023-04-04T02:13:34;100117.66;;;1.24;64.12
43147;BME280;28752;48.266;7.402;2023-04-04T02:16:02;100121.94;;;1.26;64.33
43147;BME280;28752;48.266;7.402;2023-04-04T02:18:27;100124.34;;;1.30;64.16
43147;BME280;28752;48.266;7.402;2023-04-04T02:20:56;100114.91;;;1.28;63.96
43147;BME280;28752;48.266;7.402;2023-04-04T02:23:22;100115.16;;;1.21;64.14
43147;BME280;28752;48.266;7.402;2023-04-04T02:25:49;100125.78;;;1.17;64.76
43147;BME280;28752;48.266;7.402;2023-04-04T02:28:15;100120.28;;;1.04;64.57
43147;BME280;28752;48.266;7.402;2023-04-04T02:30:40;100122.50;;;1.13;64.25
43147;BME280;28752;48.266;7.402;2023-04-04T02:33:06;100101.19;;;1.03;64.10
43147;BME280;28752;48.266;7.402;2023-04-04T02:35:31;100122.28;;;1.18;64.11
43147;BME280;28752;48.266;7.402;2023-04-04T02:37:56;100114.88;;;1.09;64.07
43147;BME280;28752;48.266;7.402;2023-04-04T02:40:22;100127.78;;;1.12;63.96
43147;BME280;28752;48.266;7.402;2023-04-04T02:42:47;100121.66;;;1.13;64.29
43147;BME280;28752;48.266;7.402;2023-04-04T02:45:13;100121.78;;;1.10;64.40
43147;BME280;28752;48.266;7.402;2023-04-04T02:47:39;100116.78;;;1.05;64.44
43147;BME280;28752;48.266;7.402;2023-04-04T02:50:05;100109.22;;;0.99;64.54
43147;BME280;28752;48.266;7.402;2023-04-04T02:52:30;100115.91;;;1.04;64.44
43147;BME280;28752;48.266;7.402;2023-04-04T02:54:57;100115.00;;;1.05;64.91
43147;BME280;28752;48.266;7.402;2023-04-04T02:57:22;100118.03;;;0.96;65.01
43147;BME280;28752;48.266;7.402;2023-04-04T02:59:47;100118.03;;;0.96;65.69
43147;BME280;28752;48.266;7.402;2023-04-04T03:02:13;100115.84;;;0.87;65.68
43147;BME280;28752;48.266;7.402;2023-04-04T03:04:38;100121.03;;;0.87;65.56
43147;BME280;28752;48.266;7.402;2023-04-04T03:07:03;100108.84;;;0.87;65.26
43147;BME280;28752;48.266;7.402;2023-04-04T03:09:29;100121.59;;;0.94;65.37
43147;BME280;28752;48.266;7.402;2023-04-04T03:11:54;100119.88;;;0.94;65.34
43147;BME280;28752;48.266;7.402;2023-04-04T03:14:19;100114.91;;;0.88;65.70
43147;BME280;28752;48.266;7.402;2023-04-04T03:16:46;100114.34;;;0.81;65.68
43147;BME280;28752;48.266;7.402;2023-04-04T03:19:13;100106.94;;;0.91;65.28
43147;BME280;28752;48.266;7.402;2023-04-04T03:21:38;100113.16;;;0.88;65.32
43147;BME280;28752;48.266;7.402;2023-04-04T03:24:04;100109.06;;;0.83;65.36
43147;BME280;28752;48.266;7.402;2023-04-04T03:26:29;100107.63;;;0.76;65.85
43147;BME280;28752;48.266;7.402;2023-04-04T03:28:55;100104.47;;;0.88;65.39
43147;BME280;28752;48.266;7.402;2023-04-04T03:31:20;100105.25;;;0.90;65.36
43147;BME280;28752;48.266;7.402;2023-04-04T03:33:46;100098.81;;;0.78;65.59
43147;BME280;28752;48.266;7.402;2023-04-04T03:36:12;100098.91;;;0.77;65.58
43147;BME280;28752;48.266;7.402;2023-04-04T03:38:38;100103.34;;;0.75;65.58
43147;BME280;28752;48.266;7.402;2023-04-04T03:41:04;100093.19;;;0.68;65.97
43147;BME280;28752;48.266;7.402;2023-04-04T03:43:30;100100.78;;;0.73;65.45
43147;BME280;28752;48.266;7.402;2023-04-04T03:46:03;100102.34;;;0.77;65.58
43147;BME280;28752;48.266;7.402;2023-04-04T03:48:29;100101.00;;;0.68;65.58
43147;BME280;28752;48.266;7.402;2023-04-04T03:50:55;100093.81;;;0.74;65.26
43147;BME280;28752;48.266;7.402;2023-04-04T03:53:22;100096.56;;;0.70;65.43
43147;BME280;28752;48.266;7.402;2023-04-04T03:55:48;100099.56;;;0.61;65.51
43147;BME280;28752;48.266;7.402;2023-04-04T03:58:13;100105.13;;;0.73;65.39
43147;BME280;28752;48.266;7.402;2023-04-04T04:00:39;100106.91;;;0.72;65.09
43147;BME280;28752;48.266;7.402;2023-04-04T04:03:04;100098.97;;;0.75;64.79
43147;BME280;28752;48.266;7.402;2023-04-04T04:05:29;100112.00;;;0.75;65.00
43147;BME280;28752;48.266;7.402;2023-04-04T04:07:55;100115.84;;;0.66;65.11
43147;BME280;28752;48.266;7.402;2023-04-04T04:10:21;100087.97;;;0.48;65.01
43147;BME280;28752;48.266;7.402;2023-04-04T04:12:46;100110.56;;;0.68;65.24
43147;BME280;28752;48.266;7.402;2023-04-04T04:15:11;100107.25;;;0.64;65.23
43147;BME280;28752;48.266;7.402;2023-04-04T04:17:40;100109.38;;;0.55;65.45
43147;BME280;28752;48.266;7.402;2023-04-04T04:20:07;100105.69;;;0.60;65.48
43147;BME280;28752;48.266;7.402;2023-04-04T04:22:33;100106.34;;;0.65;65.35
43147;BME280;28752;48.266;7.402;2023-04-04T04:24:59;100110.06;;;0.60;65.44
43147;BME280;28752;48.266;7.402;2023-04-04T04:27:25;100113.22;;;0.66;65.24
43147;BME280;28752;48.266;7.402;2023-04-04T04:29:50;100102.50;;;0.53;65.81
43147;BME280;28752;48.266;7.402;2023-04-04T04:32:16;100099.22;;;0.48;66.51
43147;BME280;28752;48.266;7.402;2023-04-04T04:34:42;100116.50;;;0.51;66.40
43147;BME280;28752;48.266;7.402;2023-04-04T04:37:07;100085.28;;;0.29;66.17
43147;BME280;28752;48.266;7.402;2023-04-04T04:39:33;100106.47;;;0.42;66.57
43147;BME280;28752;48.266;7.402;2023-04-04T04:41:58;100102.28;;;0.38;66.35
43147;BME280;28752;48.266;7.402;2023-04-04T04:44:23;100118.97;;;0.33;66.78
43147;BME280;28752;48.266;7.402;2023-04-04T04:46:49;100122.22;;;0.39;66.79
43147;BME280;28752;48.266;7.402;2023-04-04T04:49:14;100122.28;;;0.37;66.60
43147;BME280;28752;48.266;7.402;2023-04-04T04:51:40;100117.22;;;0.34;66.41
43147;BME280;28752;48.266;7.402;2023-04-04T04:54:07;100129.97;;;0.40;66.76
43147;BME280;28752;48.266;7.402;2023-04-04T04:56:32;100136.34;;;0.33;66.79
43147;BME280;28752;48.266;7.402;2023-04-04T04:58:57;100134.78;;;0.29;67.34
43147;BME280;28752;48.266;7.402;2023-04-04T05:01:23;100141.69;;;0.30;67.69
43147;BME280;28752;48.266;7.402;2023-04-04T05:03:48;100145.44;;;0.23;68.28
43147;BME280;28752;48.266;7.402;2023-04-04T05:06:13;100138.56;;;0.22;68.04
43147;BME280;28752;48.266;7.402;2023-04-04T05:08:39;100140.88;;;0.07;68.74
43147;BME280;28752;48.266;7.402;2023-04-04T05:11:04;100136.03;;;0.20;68.19
43147;BME280;28752;48.266;7.402;2023-04-04T05:13:30;100128.00;;;0.25;67.55
43147;BME280;28752;48.266;7.402;2023-04-04T05:15:55;100145.19;;;0.29;67.73
43147;BME280;28752;48.266;7.402;2023-04-04T05:18:20;100152.03;;;0.31;67.63
43147;BME280;28752;48.266;7.402;2023-04-04T05:20:51;100158.06;;;0.33;67.58
43147;BME280;28752;48.266;7.402;2023-04-04T05:23:17;100154.53;;;0.34;67.39
43147;BME280;28752;48.266;7.402;2023-04-04T05:25:42;100149.00;;;0.42;66.92
43147;BME280;28752;48.266;7.402;2023-04-04T05:28:07;100153.19;;;0.46;66.91
43147;BME280;28752;48.266;7.402;2023-04-04T05:30:33;100117.59;;;0.25;66.10
43147;BME280;28752;48.266;7.402;2023-04-04T05:32:58;100152.47;;;0.43;66.35
43147;BME280;28752;48.266;7.402;2023-04-04T05:35:23;100148.19;;;0.62;65.70
43147;BME280;28752;48.266;7.402;2023-04-04T05:37:50;100153.19;;;0.67;65.53
43147;BME280;28752;48.266;7.402;2023-04-04T05:40:15;100153.69;;;0.75;64.88
43147;BME280;28752;48.266;7.402;2023-04-04T05:42:41;100158.31;;;0.89;64.49
43147;BME280;28752;48.266;7.402;2023-04-04T05:45:07;100164.28;;;1.12;63.84
43147;BME280;28752;48.266;7.402;2023-04-04T05:47:32;100163.88;;;1.02;63.56
43147;BME280;28752;48.266;7.402;2023-04-04T05:49:58;100160.44;;;1.20;62.59
43147;BME280;28752;48.266;7.402;2023-04-04T05:52:23;100160.88;;;1.30;62.07
43147;BME280;28752;48.266;7.402;2023-04-04T05:54:49;100162.88;;;1.63;61.43
43147;BME280;28752;48.266;7.402;2023-04-04T05:57:15;100172.19;;;1.69;60.86
43147;BME280;28752;48.266;7.402;2023-04-04T05:59:40;100168.78;;;1.86;60.24
43147;BME280;28752;48.266;7.402;2023-04-04T06:02:06;100164.16;;;2.10;59.09
43147;BME280;28752;48.266;7.402;2023-04-04T06:04:32;100163.72;;;2.37;58.53
43147;BME280;28752;48.266;7.402;2023-04-04T06:06:58;100154.34;;;2.33;58.19
43147;BME280;28752;48.266;7.402;2023-04-04T06:09:23;100168.13;;;2.54;57.94
43147;BME280;28752;48.266;7.402;2023-04-04T06:11:48;100161.84;;;2.91;57.24
43147;BME280;28752;48.266;7.402;2023-04-04T06:14:14;100148.06;;;3.05;55.32
43147;BME280;28752;48.266;7.402;2023-04-04T06:16:39;100160.44;;;3.19;55.26
43147;BME280;28752;48.266;7.402;2023-04-04T06:19:05;100154.97;;;4.19;53.75
43147;BME280;28752;48.266;7.402;2023-04-04T06:21:30;100153.50;;;5.19;50.13
43147;BME280;28752;48.266;7.402;2023-04-04T06:23:56;100156.97;;;6.32;47.61
43147;BME280;28752;48.266;7.402;2023-04-04T06:26:21;100157.06;;;6.83;46.11
43147;BME280;28752;48.266;7.402;2023-04-04T06:28:50;100156.66;;;7.15;44.49
43147;BME280;28752;48.266;7.402;2023-04-04T06:31:16;100156.44;;;8.05;42.88
43147;BME280;28752;48.266;7.402;2023-04-04T06:33:42;100164.84;;;8.10;42.12
43147;BME280;28752;48.266;7.402;2023-04-04T06:36:07;100154.38;;;8.46;41.74
43147;BME280;28752;48.266;7.402;2023-04-04T06:38:33;100166.91;;;9.13;40.25
43147;BME280;28752;48.266;7.402;2023-04-04T06:40:58;100165.56;;;9.07;39.98
43147;BME280;28752;48.266;7.402;2023-04-04T06:43:23;100157.78;;;9.40;39.61
43147;BME280;28752;48.266;7.402;2023-04-04T06:45:52;100137.41;;;9.74;38.27
43147;BME280;28752;48.266;7.402;2023-04-04T06:48:18;100155.19;;;10.39;37.56
43147;BME280;28752;48.266;7.402;2023-04-04T06:50:43;100152.94;;;10.34;37.29
43147;BME280;28752;48.266;7.402;2023-04-04T06:53:08;100160.97;;;9.77;37.84
43147;BME280;28752;48.266;7.402;2023-04-04T06:55:34;100164.53;;;10.10;37.74
43147;BME280;28752;48.266;7.402;2023-04-04T06:57:59;100159.81;;;9.59;38.03
43147;BME280;28752;48.266;7.402;2023-04-04T07:00:25;100153.25;;;10.41;37.53
43147;BME280;28752;48.266;7.402;2023-04-04T07:02:57;100151.53;;;10.93;36.74
43147;BME280;28752;48.266;7.402;2023-04-04T07:05:23;100149.44;;;11.18;36.18
43147;BME280;28752;48.266;7.402;2023-04-04T07:07:51;100161.56;;;10.36;36.68
43147;BME280;28752;48.266;7.402;2023-04-04T07:10:19;100155.97;;;10.93;36.15
43147;BME280;28752;48.266;7.402;2023-04-04T07:12:45;100153.28;;;10.62;37.25
43147;BME280;28752;48.266;7.402;2023-04-04T07:15:10;100156.03;;;10.39;36.73
43147;BME280;28752;48.266;7.402;2023-04-04T07:17:36;100154.84;;;10.86;36.28
43147;BME280;28752;48.266;7.402;2023-04-04T07:20:03;100151.59;;;10.82;36.59
43147;BME280;28752;48.266;7.402;2023-04-04T07:22:29;100162.31;;;10.59;36.77
43147;BME280;28752;48.266;7.402;2023-04-04T07:24:55;100160.06;;;10.11;36.68
43147;BME280;28752;48.266;7.402;2023-04-04T07:27:20;100150.03;;;9.82;38.11
43147;BME280;28752;48.266;7.402;2023-04-04T07:29:46;100157.34;;;10.01;37.62
43147;BME280;28752;48.266;7.402;2023-04-04T07:32:11;100150.69;;;9.63;38.40
43147;BME280;28752;48.266;7.402;2023-04-04T07:34:36;100158.06;;;8.79;39.44
43147;BME280;28752;48.266;7.402;2023-04-04T07:37:02;100146.81;;;7.80;41.87
43147;BME280;28752;48.266;7.402;2023-04-04T07:39:27;100149.19;;;7.72;41.64
43147;BME280;28752;48.266;7.402;2023-04-04T07:41:53;100127.47;;;6.80;42.58
43147;BME280;28752;48.266;7.402;2023-04-04T07:44:18;100152.50;;;6.60;44.01
43147;BME280;28752;48.266;7.402;2023-04-04T07:46:43;100160.44;;;6.45;44.52
43147;BME280;28752;48.266;7.402;2023-04-04T07:49:09;100145.00;;;6.13;45.37
43147;BME280;28752;48.266;7.402;2023-04-04T07:51:34;100152.22;;;5.82;45.64
43147;BME280;28752;48.266;7.402;2023-04-04T07:54:00;100147.25;;;5.78;46.10
43147;BME280;28752;48.266;7.402;2023-04-04T07:56:26;100151.06;;;5.86;46.32
43147;BME280;28752;48.266;7.402;2023-04-04T07:58:51;100150.47;;;5.96;45.80
43147;BME280;28752;48.266;7.402;2023-04-04T08:01:17;100152.09;;;5.84;46.39
43147;BME280;28752;48.266;7.402;2023-04-04T08:03:42;100152.00;;;5.85;45.60
43147;BME280;28752;48.266;7.402;2023-04-04T08:06:08;100146.41;;;5.77;44.36
43147;BME280;28752;48.266;7.402;2023-04-04T08:08:33;100149.38;;;5.85;45.69
43147;BME280;28752;48.266;7.402;2023-04-04T08:10:58;100145.69;;;6.02;45.16
43147;BME280;28752;48.266;7.402;2023-04-04T08:13:24;100133.75;;;6.11;44.77
43147;BME280;28752;48.266;7.402;2023-04-04T08:15:49;100138.16;;;6.38;44.40
43147;BME280;28752;48.266;7.402;2023-04-04T08:18:15;100141.41;;;6.01;43.47
43147;BME280;28752;48.266;7.402;2023-04-04T08:20:40;100129.28;;;5.99;43.69
43147;BME280;28752;48.266;7.402;2023-04-04T08:23:06;100143.09;;;5.88;44.98
43147;BME280;28752;48.266;7.402;2023-04-04T08:25:32;100129.84;;;5.90;44.77
43147;BME280;28752;48.266;7.402;2023-04-04T08:27:59;100129.19;;;6.00;44.95
43147;BME280;28752;48.266;7.402;2023-04-04T08:30:25;100136.84;;;5.76;44.45
43147;BME280;28752;48.266;7.402;2023-04-04T08:32:50;100140.56;;;5.86;45.06
43147;BME280;28752;48.266;7.402;2023-04-04T08:35:15;100134.06;;;5.65;45.54
43147;BME280;28752;48.266;7.402;2023-04-04T08:37:44;100139.97;;;5.96;46.13
43147;BME280;28752;48.266;7.402;2023-04-04T08:40:13;100152.06;;;5.71;45.88
43147;BME280;28752;48.266;7.402;2023-04-04T08:42:40;100145.81;;;5.86;46.34
43147;BME280;28752;48.266;7.402;2023-04-04T08:45:08;100141.28;;;5.88;46.34
43147;BME280;28752;48.266;7.402;2023-04-04T08:47:33;100143.06;;;6.02;45.83
43147;BME280;28752;48.266;7.402;2023-04-04T08:50:03;100133.16;;;5.79;46.00
43147;BME280;28752;48.266;7.402;2023-04-04T08:52:29;100145.31;;;5.67;45.02
43147;BME280;28752;48.266;7.402;2023-04-04T08:54:56;100138.69;;;5.47;46.98
43147;BME280;28752;48.266;7.402;2023-04-04T08:57:22;100131.63;;;5.62;46.42
43147;BME280;28752;48.266;7.402;2023-04-04T08:59:47;100124.28;;;5.67;46.56
43147;BME280;28752;48.266;7.402;2023-04-04T09:04:41;100131.81;;;5.44;47.09
43147;BME280;28752;48.266;7.402;2023-04-04T09:07:08;100132.66;;;5.59;47.37
43147;BME280;28752;48.266;7.402;2023-04-04T09:09:35;100136.97;;;5.87;48.95
43147;BME280;28752;48.266;7.402;2023-04-04T09:12:02;100141.28;;;5.88;47.04
43147;BME280;28752;48.266;7.402;2023-04-04T09:14:29;100144.28;;;5.69;47.26
43147;BME280;28752;48.266;7.402;2023-04-04T09:16:55;100136.97;;;5.87;46.93
43147;BME280;28752;48.266;7.402;2023-04-04T09:19:21;100135.53;;;5.96;48.12
43147;BME280;28752;48.266;7.402;2023-04-04T09:21:47;100137.75;;;5.90;48.22
43147;BME280;28752;48.266;7.402;2023-04-04T09:24:13;100133.94;;;6.08;48.43
43147;BME280;28752;48.266;7.402;2023-04-04T09:26:46;100130.16;;;6.39;46.66
43147;BME280;28752;48.266;7.402;2023-04-04T09:29:12;100129.97;;;6.15;48.33
43147;BME280;28752;48.266;7.402;2023-04-04T09:31:38;100134.63;;;6.25;48.39
43147;BME280;28752;48.266;7.402;2023-04-04T09:34:03;100131.06;;;6.26;46.53
43147;BME280;28752;48.266;7.402;2023-04-04T09:36:29;100131.19;;;6.37;47.14
43147;BME280;28752;48.266;7.402;2023-04-04T09:38:55;100131.31;;;6.48;47.22
43147;BME280;28752;48.266;7.402;2023-04-04T09:41:21;100125.72;;;6.40;46.29
43147;BME280;28752;48.266;7.402;2023-04-04T09:43:46;100136.78;;;6.45;46.19
43147;BME280;28752;48.266;7.402;2023-04-04T09:46:13;100143.72;;;6.46;46.44
43147;BME280;28752;48.266;7.402;2023-04-04T09:48:39;100131.25;;;6.63;46.24
43147;BME280;28752;48.266;7.402;2023-04-04T09:51:12;100145.34;;;6.62;44.84
43147;BME280;28752;48.266;7.402;2023-04-04T09:53:38;100148.16;;;6.58;43.71
43147;BME280;28752;48.266;7.402;2023-04-04T09:56:06;100145.94;;;6.52;45.25
43147;BME280;28752;48.266;7.402;2023-04-04T09:58:32;100149.31;;;6.14;45.75
43147;BME280;28752;48.266;7.402;2023-04-04T10:01:01;100140.22;;;6.33;46.55
43147;BME280;28752;48.266;7.402;2023-04-04T10:03:29;100140.69;;;6.39;46.28
43147;BME280;28752;48.266;7.402;2023-04-04T10:06:05;100145.31;;;6.49;45.81
43147;BME280;28752;48.266;7.402;2023-04-04T10:08:32;100160.50;;;6.71;45.86
43147;BME280;28752;48.266;7.402;2023-04-04T10:11:02;100158.84;;;6.70;45.42
43147;BME280;28752;48.266;7.402;2023-04-04T10:13:30;100159.72;;;6.43;44.81
43147;BME280;28752;48.266;7.402;2023-04-04T10:15:57;100147.75;;;6.52;45.47
43147;BME280;28752;48.266;7.402;2023-04-04T10:18:24;100151.81;;;6.30;44.75
43147;BME280;28752;48.266;7.402;2023-04-04T10:20:52;100148.09;;;6.20;44.81
43147;BME280;28752;48.266;7.402;2023-04-04T10:23:18;100134.59;;;6.52;45.83
43147;BME280;28752;48.266;7.402;2023-04-04T10:25:44;100149.13;;;6.57;43.86
43147;BME280;28752;48.266;7.402;2023-04-04T10:28:11;100144.09;;;6.80;45.56
43147;BME280;28752;48.266;7.402;2023-04-04T10:30:40;100156.22;;;6.70;44.93
43147;BME280;28752;48.266;7.402;2023-04-04T10:33:09;100149.34;;;6.67;43.76
43147;BME280;28752;48.266;7.402;2023-04-04T10:35:42;100149.97;;;6.71;44.81
43147;BME280;28752;48.266;7.402;2023-04-04T10:38:09;100145.94;;;6.52;44.01
43147;BME280;28752;48.266;7.402;2023-04-04T10:40:36;100141.97;;;6.72;45.63
43147;BME280;28752;48.266;7.402;2023-04-04T10:43:05;100142.94;;;6.84;45.16
43147;BME280;28752;48.266;7.402;2023-04-04T10:45:30;100147.13;;;6.74;44.47
43147;BME280;28752;48.266;7.402;2023-04-04T10:47:57;100145.44;;;6.60;44.68
43147;BME280;28752;48.266;7.402;2023-04-04T10:50:22;100122.06;;;6.55;44.55
43147;BME280;28752;48.266;7.402;2023-04-04T10:52:49;100099.47;;;6.53;43.48
43147;BME280;28752;48.266;7.402;2023-04-04T10:55:15;100131.47;;;6.85;44.16
43147;BME280;28752;48.266;7.402;2023-04-04T10:57:46;100129.06;;;7.08;44.09
43147;BME280;28752;48.266;7.402;2023-04-04T11:00:17;100120.41;;;6.80;43.68
43147;BME280;28752;48.266;7.402;2023-04-04T11:05:20;100110.06;;;7.03;44.01
43147;BME280;28752;48.266;7.402;2023-04-04T11:07:49;100110.19;;;6.88;43.62
43147;BME280;28752;48.266;7.402;2023-04-04T11:10:22;100106.91;;;7.10;44.21
43147;BME280;28752;48.266;7.402;2023-04-04T11:12:51;100101.63;;;7.10;44.55
43147;BME280;28752;48.266;7.402;2023-04-04T11:15:23;100109.88;;;7.19;43.71
43147;BME280;28752;48.266;7.402;2023-04-04T11:17:58;100103.13;;;6.89;43.35
43147;BME280;28752;48.266;7.402;2023-04-04T11:20:27;100108.19;;;6.92;43.32
43147;BME280;28752;48.266;7.402;2023-04-04T11:23:01;100106.94;;;6.85;43.80
43147;BME280;28752;48.266;7.402;2023-04-04T11:25:34;100106.41;;;6.92;44.45
43147;BME280;28752;48.266;7.402;2023-04-04T11:34:03;100086.66;;;7.24;43.83
43147;BME280;28752;48.266;7.402;2023-04-04T11:44:20;100074.28;;;7.50;44.19
43147;BME280;28752;48.266;7.402;2023-04-04T11:46:57;100084.56;;;7.16;42.00
43147;BME280;28752;48.266;7.402;2023-04-04T11:49:28;100083.31;;;7.22;43.42
43147;BME280;28752;48.266;7.402;2023-04-04T11:51:55;100074.13;;;7.27;42.92
43147;BME280;28752;48.266;7.402;2023-04-04T11:54:20;100078.53;;;7.27;43.18
43147;BME280;28752;48.266;7.402;2023-04-04T11:56:46;100087.81;;;7.33;42.69
43147;BME280;28752;48.266;7.402;2023-04-04T11:59:12;100068.66;;;7.31;42.38
43147;BME280;28752;48.266;7.402;2023-04-04T12:01:41;100067.22;;;7.51;43.39
43147;BME280;28752;48.266;7.402;2023-04-04T12:04:08;100054.16;;;7.73;43.55
43147;BME280;28752;48.266;7.402;2023-04-04T12:06:33;100053.25;;;7.61;42.83
43147;BME280;28752;48.266;7.402;2023-04-04T12:09:02;100059.25;;;7.63;42.73
43147;BME280;28752;48.266;7.402;2023-04-04T12:11:29;100062.66;;;7.53;42.31
43147;BME280;28752;48.266;7.402;2023-04-04T12:13:56;100066.44;;;7.61;41.94
43147;BME280;28752;48.266;7.402;2023-04-04T12:16:22;100067.28;;;7.86;43.16
43147;BME280;28752;48.266;7.402;2023-04-04T12:18:48;100060.16;;;7.75;42.00
43147;BME280;28752;48.266;7.402;2023-04-04T12:21:14;100073.00;;;7.80;42.23
43147;BME280;28752;48.266;7.402;2023-04-04T12:23:40;100054.44;;;7.81;42.41
43147;BME280;28752;48.266;7.402;2023-04-04T12:26:06;100063.97;;;7.95;42.51
43147;BME280;28752;48.266;7.402;2023-04-04T12:28:33;100063.47;;;7.90;41.85
43147;BME280;28752;48.266;7.402;2023-04-04T12:31:03;100069.66;;;7.78;41.25
43147;BME280;28752;48.266;7.402;2023-04-04T12:33:31;100069.47;;;7.68;41.01
43147;BME280;28752;48.266;7.402;2023-04-04T12:36:01;100077.81;;;7.86;41.67
43147;BME280;28752;48.266;7.402;2023-04-04T12:38:28;100067.38;;;7.85;41.26
43147;BME280;28752;48.266;7.402;2023-04-04T12:40:54;100066.88;;;8.04;41.08
43147;BME280;28752;48.266;7.402;2023-04-04T12:43:20;100063.09;;;8.19;41.09
43147;BME280;28752;48.266;7.402;2023-04-04T12:45:49;100068.06;;;7.99;40.09
43147;BME280;28752;48.266;7.402;2023-04-04T12:48:15;100064.75;;;8.09;40.87
43147;BME280;28752;48.266;7.402;2023-04-04T12:50:56;100060.22;;;7.87;41.31
43147;BME280;28752;48.266;7.402;2023-04-04T12:53:28;100062.53;;;7.91;40.50
43147;BME280;28752;48.266;7.402;2023-04-04T12:56:01;100060.91;;;7.77;40.25
43147;BME280;28752;48.266;7.402;2023-04-04T12:58:29;100059.44;;;7.97;41.17
43147;BME280;28752;48.266;7.402;2023-04-04T13:00:58;100057.97;;;8.29;40.64
43147;BME280;28752;48.266;7.402;2023-04-04T13:03:26;100076.75;;;8.13;40.83
43147;BME280;28752;48.266;7.402;2023-04-04T13:05:52;100051.28;;;8.00;40.24
43147;BME280;28752;48.266;7.402;2023-04-04T13:08:18;100052.25;;;7.99;40.22
43147;BME280;28752;48.266;7.402;2023-04-04T13:11:03;100056.03;;;8.19;41.37
43147;BME280;28752;48.266;7.402;2023-04-04T13:13:31;100044.81;;;8.40;40.92
43147;BME280;28752;48.266;7.402;2023-04-04T13:15:57;100036.91;;;8.40;39.75